sensor_id;sensor_type;location;lat;lon;timestamp;temperature;humidity
49379;DHT22;35254;47.990;-1.608;2022-08-01T19:08:53;26.00;50.50
49379;DHT22;35254;47.990;-1.608;2022-08-01T19:11:19;26.00;50.70
49379;DHT22;35254;47.990;-1.608;2022-08-01T19:13:45;26.00;51.10
49379;DHT22;35254;47.990;-1.608;2022-08-01T19:16:11;26.00;51.00
49379;DHT22;35254;47.990;-1.608;2022-08-01T19:18:37;26.00;51.30
49379;DHT22;35254;47.990;-1.608;2022-08-01T19:21:04;26.00;52.00
49379;DHT22;35254;47.990;-1.608;2022-08-01T19:23:32;26.00;51.30
49379;DHT22;35254;47.990;-1.608;2022-08-01T19:26:19;26.00;51.90
49379;DHT22;35254;47.990;-1.608;2022-08-01T19:28:46;25.90;51.80
49379;DHT22;35254;47.990;-1.608;2022-08-01T19:31:14;25.80;52.30
49379;DHT22;35254;47.990;-1.608;2022-08-01T19:33:41;25.70;52.10
49379;DHT22;35254;47.990;-1.608;2022-08-01T19:36:13;25.70;52.50
49379;DHT22;35254;47.990;-1.608;2022-08-01T19:38:40;25.70;52.50
49379;DHT22;35254;47.990;-1.608;2022-08-01T19:41:06;25.60;53.00
49379;DHT22;35254;47.990;-1.608;2022-08-01T19:43:35;25.60;52.70
49379;DHT22;35254;47.990;-1.608;2022-08-01T19:46:05;25.50;52.70
49379;DHT22;35254;47.990;-1.608;2022-08-01T19:48:40;25.40;52.90
49379;DHT22;35254;47.990;-1.608;2022-08-01T19:51:06;25.30;53.00
49379;DHT22;35254;47.990;-1.608;2022-08-01T19:53:37;25.30;53.00
49379;DHT22;35254;47.990;-1.608;2022-08-01T19:56:05;25.20;53.30
49379;DHT22;35254;47.990;-1.608;2022-08-01T19:58:36;25.10;54.30
49379;DHT22;35254;47.990;-1.608;2022-08-01T20:01:06;25.00;53.90
49379;DHT22;35254;47.990;-1.608;2022-08-01T20:03:33;24.90;54.20
49379;DHT22;35254;47.990;-1.608;2022-08-01T20:06:03;24.90;54.00
49379;DHT22;35254;47.990;-1.608;2022-08-01T20:08:30;24.80;54.30
49379;DHT22;35254;47.990;-1.608;2022-08-01T20:10:58;24.70;54.50
49379;DHT22;35254;47.990;-1.608;2022-08-01T20:13:24;24.70;54.70
49379;DHT22;35254;47.990;-1.608;2022-08-01T20:15:50;24.60;54.80
49379;DHT22;35254;47.990;-1.608;2022-08-01T20:18:16;24.50;55.10
49379;DHT22;35254;47.990;-1.608;2022-08-01T20:20:46;24.40;55.30
49379;DHT22;35254;47.990;-1.608;2022-08-01T20:23:15;24.30;55.10
49379;DHT22;35254;47.990;-1.608;2022-08-01T20:25:44;24.20;55.30
49379;DHT22;35254;47.990;-1.608;2022-08-01T20:28:12;24.20;55.70
49379;DHT22;35254;47.990;-1.608;2022-08-01T20:30:39;24.20;55.90
49379;DHT22;35254;47.990;-1.608;2022-08-01T20:33:06;24.10;56.10
49379;DHT22;35254;47.990;-1.608;2022-08-01T20:35:32;24.10;56.20
49379;DHT22;35254;47.990;-1.608;2022-08-01T20:38:00;24.00;56.20
49379;DHT22;35254;47.990;-1.608;2022-08-01T20:40:26;24.00;57.00
49379;DHT22;35254;47.990;-1.608;2022-08-01T20:42:52;23.90;56.40
49379;DHT22;35254;47.990;-1.608;2022-08-01T20:45:18;23.90;56.10
49379;DHT22;35254;47.990;-1.608;2022-08-01T20:47:45;23.80;56.40
49379;DHT22;35254;47.990;-1.608;2022-08-01T20:50:11;23.80;56.40
49379;DHT22;35254;47.990;-1.608;2022-08-01T20:52:55;23.70;57.50
49379;DHT22;35254;47.990;-1.608;2022-08-01T20:55:22;23.70;57.40
49379;DHT22;35254;47.990;-1.608;2022-08-01T20:57:51;23.60;57.10
49379;DHT22;35254;47.990;-1.608;2022-08-01T21:00:17;23.60;57.00
49379;DHT22;35254;47.990;-1.608;2022-08-01T21:02:53;23.50;57.20
49379;DHT22;35254;47.990;-1.608;2022-08-01T21:05:35;23.40;58.10
49379;DHT22;35254;47.990;-1.608;2022-08-01T21:08:13;23.40;58.10
49379;DHT22;35254;47.990;-1.608;2022-08-01T21:10:42;23.30;58.30
49379;DHT22;35254;47.990;-1.608;2022-08-01T21:13:15;23.30;58.20
49379;DHT22;35254;47.990;-1.608;2022-08-01T21:15:49;23.20;58.20
49379;DHT22;35254;47.990;-1.608;2022-08-01T21:21:06;23.20;58.60
49379;DHT22;35254;47.990;-1.608;2022-08-01T21:24:03;23.10;58.70
49379;DHT22;35254;47.990;-1.608;2022-08-01T21:26:30;23.10;59.10
49379;DHT22;35254;47.990;-1.608;2022-08-01T21:28:59;23.00;58.80
49379;DHT22;35254;47.990;-1.608;2022-08-01T21:31:31;23.00;59.00
49379;DHT22;35254;47.990;-1.608;2022-08-01T21:34:00;22.90;59.10
49379;DHT22;35254;47.990;-1.608;2022-08-01T21:36:28;22.90;59.20
49379;DHT22;35254;47.990;-1.608;2022-08-01T21:38:56;22.80;59.30
49379;DHT22;35254;47.990;-1.608;2022-08-01T21:41:23;22.70;59.30
49379;DHT22;35254;47.990;-1.608;2022-08-01T21:43:50;22.70;59.50
49379;DHT22;35254;47.990;-1.608;2022-08-01T21:46:16;22.60;60.00
49379;DHT22;35254;47.990;-1.608;2022-08-01T21:48:48;22.50;60.20
49379;DHT22;35254;47.990;-1.608;2022-08-01T21:56:49;22.40;61.00
49379;DHT22;35254;47.990;-1.608;2022-08-01T21:59:54;22.30;60.50
49379;DHT22;35254;47.990;-1.608;2022-08-01T22:02:24;22.20;61.10
49379;DHT22;35254;47.990;-1.608;2022-08-01T22:07:24;22.20;61.70
49379;DHT22;35254;47.990;-1.608;2022-08-01T22:09:52;22.20;61.50
49379;DHT22;35254;47.990;-1.608;2022-08-01T22:12:20;22.10;61.50
49379;DHT22;35254;47.990;-1.608;2022-08-01T22:14:48;22.10;61.50
49379;DHT22;35254;47.990;-1.608;2022-08-01T22:17:19;22.00;61.50
49379;DHT22;35254;47.990;-1.608;2022-08-01T22:19:47;21.90;61.60
49379;DHT22;35254;47.990;-1.608;2022-08-01T22:22:13;21.90;62.80
49379;DHT22;35254;47.990;-1.608;2022-08-01T22:24:40;21.80;62.20
49379;DHT22;35254;47.990;-1.608;2022-08-01T22:27:06;21.70;62.00
49379;DHT22;35254;47.990;-1.608;2022-08-01T22:29:53;21.70;62.00
49379;DHT22;35254;47.990;-1.608;2022-08-01T22:32:21;21.70;62.20
49379;DHT22;35254;47.990;-1.608;2022-08-01T22:34:49;21.70;62.30
49379;DHT22;35254;47.990;-1.608;2022-08-01T22:37:14;21.70;62.80
49379;DHT22;35254;47.990;-1.608;2022-08-01T22:39:40;21.60;62.80
49379;DHT22;35254;47.990;-1.608;2022-08-01T22:42:08;21.60;63.10
49379;DHT22;35254;47.990;-1.608;2022-08-01T22:44:52;21.60;63.20
49379;DHT22;35254;47.990;-1.608;2022-08-01T22:50:03;21.50;63.20
49379;DHT22;35254;47.990;-1.608;2022-08-01T22:52:30;21.50;63.30
49379;DHT22;35254;47.990;-1.608;2022-08-01T22:55:06;21.40;63.20
49379;DHT22;35254;47.990;-1.608;2022-08-01T22:58:01;21.40;63.70
49379;DHT22;35254;47.990;-1.608;2022-08-01T23:00:29;21.40;63.50
49379;DHT22;35254;47.990;-1.608;2022-08-01T23:03:10;21.30;63.70
49379;DHT22;35254;47.990;-1.608;2022-08-01T23:05:40;21.30;63.90
49379;DHT22;35254;47.990;-1.608;2022-08-01T23:08:10;21.30;63.80
49379;DHT22;35254;47.990;-1.608;2022-08-01T23:10:37;21.20;64.10
49379;DHT22;35254;47.990;-1.608;2022-08-01T23:13:03;21.20;63.90
49379;DHT22;35254;47.990;-1.608;2022-08-01T23:15:29;21.10;64.00
49379;DHT22;35254;47.990;-1.608;2022-08-01T23:17:56;21.10;64.00
49379;DHT22;35254;47.990;-1.608;2022-08-01T23:20:22;21.00;64.30
49379;DHT22;35254;47.990;-1.608;2022-08-01T23:22:48;20.90;64.40
49379;DHT22;35254;47.990;-1.608;2022-08-01T23:25:16;20.90;64.50
49379;DHT22;35254;47.990;-1.608;2022-08-01T23:27:44;20.80;64.50
49379;DHT22;35254;47.990;-1.608;2022-08-01T23:30:11;20.70;64.40
49379;DHT22;35254;47.990;-1.608;2022-08-01T23:32:36;20.70;64.50
49379;DHT22;35254;47.990;-1.608;2022-08-01T23:35:02;20.60;64.90
49379;DHT22;35254;47.990;-1.608;2022-08-01T23:37:28;20.60;64.90
49379;DHT22;35254;47.990;-1.608;2022-08-01T23:39:54;20.50;65.00
49379;DHT22;35254;47.990;-1.608;2022-08-01T23:42:19;20.50;65.20
49379;DHT22;35254;47.990;-1.608;2022-08-01T23:44:45;20.50;65.30
49379;DHT22;35254;47.990;-1.608;2022-08-01T23:47:12;20.50;65.60
49379;DHT22;35254;47.990;-1.608;2022-08-01T23:49:38;20.40;65.70
49379;DHT22;35254;47.990;-1.608;2022-08-01T23:52:04;20.40;65.50
49379;DHT22;35254;47.990;-1.608;2022-08-01T23:54:30;20.30;65.60
49379;DHT22;35254;47.990;-1.608;2022-08-01T23:56:56;20.30;65.70
49379;DHT22;35254;47.990;-1.608;2022-08-01T23:59:26;20.20;65.70
